首页
METAR-TAF:

METAR-TAF

机场 :

Greenville Downtown Airport

格林维尔, 南卡罗来纳州, 美国

纬度: 34-50-46N, 经度: 082-20-46W, 海拔: 319米

当前天气观测

该预报发布于19分钟前的16:53 UTC
风速5节,风向西转西南
温度 27°C
湿度 70%
气压 1016 hPa
能見度: 16.1公里
少量云层高于2300英尺

METAR: KGMU 041653Z 25005KT 10SM FEW023 27/21 A3001 RMK AO2 SLP152 T02720211

时间: 13:12 (17:12 UTC)

预报

该预报发布于1小时和13分钟前的15:59 UTC
预报有效从04日的 16点(UTC)到 05日的 12点(UTC)
风速5节,风向南转西南
能見度: 10公里
散云层高于2100英尺
从 04日的 2000点(UTC)
风速4节,风向西转西南
能見度: 10公里
散云层高于5000英尺
附近有阵雨
从 05日的 0300点(UTC)
风速3节,风向西转西北
能見度: 10公里
散云层高于6000英尺

TAF: KGMU 041559Z 0416/0512 20005KT P6SM SCT021 FM042000 24004KT P6SM VCSH SCT050 FM050300 29003KT P6SM SCT060

超过4000个机场的气象观测和天气预报(METAR&TAF报告)。

可查询的气象台以黄色和红色小点在地图上表示。

将鼠标移到小点上方,可查看气象台名称。

然后点击查看天气观测和预报。

如需切换地图:点击带黑十字的绿色按钮放大地图;点击带横线的绿色按钮缩小地图;或者点击绿色箭头查看邻近地区的地图。


METAR-TAF: